Latest Weather Observations for Port Macquarie Airport

IDN60801

Issued at 4:03 pm EST Wednesday 31 August 2016 (issued every 30 minutes, with the page automatically refreshed every 10 minutes)

About weather observations | Map of weather stations | Latest weather observations for NSW | Other Formats
Station Details ID: 060139 Name: PORT MACQUARIE AIRPORT AWS Lat: -31.43 Lon: 152.87 Height: 4.2 m
Data from the previous 72 hours. | See also: Recent months at Port Macquarie Airport
Date/Time
EST
Temp
°C
App
Temp
°C
Dew
Point
°C
Rel
Hum
%
Delta-T
°C
Wind Press
QNH
hPa
Press
MSL
hPa
Rain since
9am
mm
Dir  Spd
km/h
Gust
km/h
Spd
kts
Gust
kts
31/03:30pm 19.2 18.2 13.4 69 3.3 NE 11 15 6 8 1018.1 1018.1 0.0
31/03:00pm 19.5 18.1 13.4 68 3.5 N 13 17 7 9 1018.7 1018.7 0.0
31/02:30pm 19.8 19.3 13.7 68 3.5 NE 9 13 5 7 1018.6 1018.6 0.0
31/02:00pm 20.0 18.1 13.0 64 4.0 NE 15 19 8 10 1018.8 1018.8 0.0
31/01:30pm 20.9 19.2 12.3 58 4.8 NNE 13 17 7 9 1019.0 1019.0 0.0
31/01:00pm 20.7 18.5 12.1 58 4.8 NNE 15 19 8 10 1019.6 1019.6 0.0
31/12:30pm 20.6 18.5 12.3 59 4.7 N 15 20 8 11 1020.2 1020.2 0.0
31/12:00pm 20.0 18.1 11.8 59 4.5 N 13 19 7 10 1020.7 1020.7 0.0
31/11:30am 19.8 17.7 11.3 58 4.7 N 13 17 7 9 1021.4 1021.4 0.0
31/11:00am 19.7 16.2 10.1 54 5.1 N 19 26 10 14 1021.5 1021.5 0.0
31/10:30am 21.2 17.6 10.7 51 5.7 N 20 26 11 14 1021.8 1021.8 0.0
31/10:00am 19.8 17.7 12.3 62 4.2 N 15 24 8 13 1022.3 1022.3 0.0
31/09:30am 18.9 17.2 12.4 66 3.6 NNE 13 17 7 9 1022.5 1022.5 0.0
31/09:00am 17.5 15.3 12.0 70 3.0 NNE 15 22 8 12 1022.7 1022.7 0.0
31/08:30am 15.7 13.9 12.1 79 2.0 N 13 19 7 10 1023.4 1023.4 0.0
31/08:00am 14.5 12.7 12.2 86 1.2 N 13 17 7 9 1023.6 1023.6 0.0
31/07:30am 14.1 13.0 12.0 87 1.1 N 9 13 5 7 1023.3 1023.3 0.0
31/07:00am 12.2 12.5 10.8 91 0.7 CALM 0 7 0 4 1023.4 1023.4 0.0
31/06:30am 12.4 11.5 10.6 89 0.9 N 6 9 3 5 1023.1 1023.1 0.0
31/06:00am 12.3 11.0 11.4 94 0.5 N 9 13 5 7 1022.9 1022.9 0.0
31/05:30am 10.2 8.8 9.0 92 0.6 ENE 6 9 3 5 1022.6 1022.6 0.0
31/05:00am 10.4 10.1 8.8 90 0.8 CALM 0 0 0 0 1023.0 1023.0 0.0
31/04:30am 11.4 11.5 10.0 91 0.7 CALM 0 0 0 0 1022.8 1022.8 0.0
31/04:00am 11.6 11.6 9.7 88 1.0 CALM 0 0 0 0 1022.7 1022.7 0.0
31/03:30am 12.3 12.3 9.9 85 1.2 CALM 0 0 0 0 1022.4 1022.4 0.0
31/03:00am 14.0 12.6 11.0 82 1.6 N 9 11 5 6 1022.2 1022.2 0.0
31/02:30am 15.0 13.7 11.4 79 1.9 NNE 9 13 5 7 1022.6 1022.6 0.0
31/02:00am 14.5 13.4 10.5 77 2.1 N 7 11 4 6 1023.3 1023.3 0.0
31/01:30am 15.3 13.1 10.9 75 2.3 NNE 13 15 7 8 1023.6 1023.6 0.0
31/01:00am 16.2 13.7 11.2 72 2.7 N 15 19 8 10 1023.8 1023.8 0.0
31/12:30am 16.9 13.7 11.8 72 2.8 N 20 28 11 15 1023.9 1023.9 0.0
31/12:00am 17.0 13.9 12.3 74 2.6 N 20 28 11 15 1024.1 1024.1 0.0
 
Date/Time
EST
Temp
°C
App
Temp
°C
Dew
Point
°C
Rel
Hum
%
Delta-T
°C
Wind Press
QNH
hPa
Press
MSL
hPa
Rain since
9am
mm
Dir  Spd
km/h
Gust
km/h
Spd
kts
Gust
kts
30/11:30pm 17.5 14.2 12.8 74 2.6 NNE 22 35 12 19 1023.9 1023.9 0.0
30/11:00pm 17.4 14.6 13.1 76 2.4 NNE 20 30 11 16 1024.2 1024.2 0.0
30/10:30pm 17.2 15.0 13.3 78 2.2 N 17 24 9 13 1024.4 1024.4 0.0
30/10:00pm 17.4 15.2 13.3 77 2.3 N 17 26 9 14 1024.7 1024.7 0.0
30/09:30pm 17.5 15.2 13.0 75 2.5 NNE 17 20 9 11 1024.7 1024.7 0.0
30/09:00pm 17.7 15.8 13.0 74 2.6 NNE 15 22 8 12 1025.2 1025.2 0.0
30/08:30pm 17.8 16.1 13.5 76 2.4 N 15 20 8 11 1025.2 1025.2 0.0
30/08:00pm 18.0 16.0 13.9 77 2.3 N 17 24 9 13 1025.0 1025.0 0.0
30/07:30pm 18.0 16.3 13.7 76 2.4 NNE 15 22 8 12 1025.0 1025.0 0.0
30/07:00pm 18.0 16.4 13.9 77 2.3 NNE 15 19 8 10 1025.0 1025.0 0.0
30/06:30pm 17.9 16.3 13.8 77 2.3 NNE 15 20 8 11 1025.0 1025.0 0.0
30/06:00pm 18.3 16.7 14.0 76 2.4 NNE 15 20 8 11 1024.7 1024.7 0.0
30/05:30pm 18.8 16.2 13.9 73 2.8 NNE 20 30 11 16 1024.5 1024.5 0.0
30/05:00pm 19.5 16.6 13.9 70 3.2 NNE 22 35 12 19 1024.6 1024.6 0.0
30/04:30pm 20.0 17.1 14.1 69 3.4 NNE 22 33 12 18 1024.4 1024.4 0.0
30/04:00pm 20.9 17.8 14.5 67 3.7 NNE 24 35 13 19 1024.3 1024.3 0.0
30/03:30pm 21.1 17.4 14.0 64 4.1 NNE 26 35 14 19 1024.2 1024.2 0.0
30/03:00pm 21.4 18.5 14.1 63 4.2 NE 22 32 12 17 1024.5 1024.5 0.0
30/02:30pm 21.2 18.7 14.1 64 4.1 NE 20 30 11 16 1024.9 1024.9 0.0
30/02:00pm 21.7 19.9 14.4 63 4.3 NE 17 22 9 12 1025.1 1025.1 0.0
30/01:30pm 20.8 17.7 13.3 62 4.3 NNE 22 32 12 17 1025.4 1025.4 0.0
30/01:00pm 21.3 18.2 13.5 61 4.5 NE 22 32 12 17 1025.1 1025.1 0.0
30/12:30pm 21.2 17.9 12.9 59 4.7 NNE 22 32 12 17 1025.7 1025.7 0.0
30/12:00pm 21.2 18.7 13.6 62 4.4 NE 19 24 10 13 1025.7 1025.7 0.0
30/11:30am 21.0 18.0 12.7 59 4.7 NNE 20 30 11 16 1026.5 1026.5 0.0
30/11:00am 21.8 18.9 13.9 61 4.6 N 22 32 12 17 1027.3 1027.3 0.0
30/10:30am 21.4 18.1 12.8 58 4.9 N 22 30 12 16 1027.4 1027.4 0.0
30/10:00am 20.7 18.7 13.9 65 3.9 NNE 17 22 9 12 1027.5 1027.5 0.0
30/09:30am 18.6 18.1 13.7 73 2.8 NNE 9 15 5 8 1027.9 1027.9 0.0
30/09:00am 17.1 16.3 12.8 76 2.4 NW 9 13 5 7 1028.4 1028.4 0.0
30/08:30am 15.3 14.3 12.2 82 1.7 NW 9 13 5 7 1028.1 1028.1 0.0
30/08:00am 14.3 13.9 12.5 89 1.0 NNW 6 7 3 4 1028.2 1028.2 0.0
30/07:30am 12.4 12.2 11.8 96 0.3 NW 4 7 2 4 1028.3 1028.3 0.0
30/07:00am 10.5 10.2 10.0 97 0.3 WNW 2 6 1 3 1028.1 1028.1 0.0
30/06:30am 9.8 8.9 9.3 97 0.2 NW 4 7 2 4 1027.7 1027.7 0.0
30/06:00am 9.0 8.3 8.4 96 0.3 WNW 2 7 1 4 1027.6 1027.6 0.0
30/05:30am 8.4 7.8 7.6 95 0.4 CALM 0 0 0 0 1026.9 1026.9 0.0
30/05:00am 8.0 7.3 7.1 94 0.4 CALM 0 6 0 3 1026.1 1026.1 0.0
30/04:30am 8.5 7.9 7.6 94 0.4 CALM 0 0 0 0 1025.6 1025.6 0.0
30/04:00am 9.3 9.0 8.5 95 0.4 CALM 0 0 0 0 1025.8 1025.8 0.0
30/03:30am 9.5 9.2 8.7 95 0.4 CALM 0 0 0 0 1025.7 1025.7 0.0
30/03:00am 9.6 9.3 8.8 95 0.4 CALM 0 0 0 0 1025.5 1025.5 0.0
30/02:59am 9.6 9.3 8.8 95 0.4 CALM 0 0 0 0 1025.5 1025.5 0.0
30/02:30am 8.9 8.4 7.8 93 0.5 CALM 0 0 0 0 1025.6 1025.6 0.0
30/02:01am 9.2 8.7 8.0 92 0.6 CALM 0 0 0 0 1025.7 1025.7 0.0
30/02:00am 9.3 8.9 8.1 92 0.6 CALM 0 0 0 0 1025.7 1025.7 0.0
30/01:30am 10.2 9.3 9.1 93 0.5 NW 4 6 2 3 1025.6 1025.6 0.0
30/01:00am 10.6 10.6 9.7 94 0.4 CALM 0 0 0 0 1025.8 1025.8 0.0
30/12:30am 10.8 10.8 9.9 94 0.5 CALM 0 0 0 0 1026.1 1026.1 0.0
30/12:00am 11.0 11.1 10.2 95 0.4 CALM 0 0 0 0 1026.3 1026.3 0.0
 
Date/Time
EST
Temp
°C
App
Temp
°C
Dew
Point
°C
Rel
Hum
%
Delta-T
°C
Wind Press
QNH
hPa
Press
MSL
hPa
Rain since
9am
mm
Dir  Spd
km/h
Gust
km/h
Spd
kts
Gust
kts
29/11:30pm 10.6 10.6 9.7 94 0.5 CALM 0 0 0 0 1026.2 1026.2 0.0
29/11:00pm 11.0 11.1 10.2 95 0.4 CALM 0 0 0 0 1026.3 1026.3 0.0
29/10:30pm 10.5 10.4 9.3 92 0.6 CALM 0 0 0 0 1026.5 1026.5 0.0
29/10:00pm 11.3 11.5 10.4 94 0.5 CALM 0 0 0 0 1026.5 1026.5 0.0
29/09:30pm 10.9 11.0 10.0 94 0.5 CALM 0 0 0 0 1027.0 1027.0 0.0
29/09:00pm 10.6 10.4 9.2 91 0.7 CALM 0 0 0 0 1026.9 1026.9 0.0
29/08:30pm 10.4 10.1 8.7 89 0.8 CALM 0 0 0 0 1026.7 1026.7 0.0
29/08:00pm 11.4 10.9 9.3 87 1.0 NW 2 6 1 3 1026.5 1026.5 0.0
29/07:30pm 12.3 12.4 10.2 87 1.1 CALM 0 0 0 0 1026.2 1026.2 0.0
29/07:00pm 13.4 13.6 10.4 82 1.5 CALM 0 0 0 0 1026.3 1026.3 0.0
29/06:30pm 14.5 14.1 11.1 80 1.8 N 4 6 2 3 1026.1 1026.1 0.0
29/06:00pm 16.3 15.2 10.8 70 2.9 NNE 7 9 4 5 1025.9 1025.9 0.0
29/05:30pm 17.9 16.1 11.0 64 3.7 NE 11 17 6 9 1025.3 1025.3 0.0
29/05:00pm 18.6 16.8 10.9 61 4.1 NE 11 15 6 8 1025.1 1025.1 0.0
29/04:30pm 18.7 16.4 10.5 59 4.4 NE 13 17 7 9 1025.3 1025.3 0.0
29/04:00pm 19.0 16.6 10.0 56 4.8 ENE 13 17 7 9 1025.2 1025.2 0.0
29/03:30pm 18.9 16.5 10.2 57 4.7 ENE 13 17 7 9 1025.0 1025.0 0.0
29/03:00pm 19.0 15.7 9.5 54 5.0 ENE 17 20 9 11 1024.6 1024.6 0.0
29/02:30pm 20.0 15.6 6.4 41 6.8 ENE 19 20 10 11 1024.6 1024.6 0.0
29/02:00pm 20.2 16.2 5.1 37 7.3 ENE 15 19 8 10 1024.9 1024.9 0.0
29/01:30pm 20.0 16.8 8.4 47 6.0 ENE 15 20 8 11 1025.0 1025.0 0.0
29/01:00pm 20.2 16.9 8.2 46 6.2 ENE 15 20 8 11 1025.1 1025.1 0.0
29/12:30pm 20.3 16.1 5.5 38 7.3 E 17 26 9 14 1025.0 1025.0 0.0
29/12:00pm 20.6 17.2 5.8 38 7.3 ENE 13 19 7 10 1025.7 1025.7 0.0
29/11:30am 19.9 17.7 5.5 39 7.1 N 6 9 3 5 1025.9 1025.9 0.0
29/11:00am 19.9 18.1 7.0 43 6.5 NE 6 15 3 8 1026.6 1026.6 0.0
29/10:30am 19.4 17.7 8.4 49 5.7 NW 7 11 4 6 1026.9 1026.9 0.0
29/10:00am 18.0 16.4 8.8 55 4.7 WSW 7 9 4 5 1027.0 1027.0 0.0
29/09:30am 16.5 14.8 8.5 59 4.1 W 7 11 4 6 1026.9 1026.9 0.0
29/09:00am 14.8 11.7 7.4 61 3.6 WNW 13 17 7 9 1027.2 1027.2 0.0
29/08:30am 13.7 11.1 7.9 68 2.9 W 11 19 6 10 1027.1 1027.1 0.0
29/08:00am 12.3 10.0 7.4 72 2.4 W 9 13 5 7 1026.9 1026.9 0.0
29/07:30am 11.1 8.2 6.6 74 2.1 W 11 17 6 9 1026.4 1026.4 0.0
29/07:00am 10.1 8.0 6.8 80 1.5 W 7 11 4 6 1026.3 1026.3 0.0
29/06:30am 9.1 6.9 6.0 81 1.4 W 7 13 4 7 1025.8 1025.8 0.0
29/06:00am 9.0 6.7 5.9 81 1.4 W 7 13 4 7 1025.3 1025.3 0.0
29/05:30am 8.9 6.7 6.0 82 1.3 WSW 7 11 4 6 1024.6 1024.6 0.0
29/05:00am 8.8 6.8 6.1 83 1.2 W 6 7 3 4 1024.3 1024.3 0.0
29/04:30am 9.1 7.1 6.4 83 1.2 WSW 6 9 3 5 1024.1 1024.1 0.0
29/04:00am 9.3 7.4 6.7 84 1.2 W 6 9 3 5 1023.9 1023.9 0.0
29/03:30am 9.7 7.3 7.1 84 1.2 W 9 13 5 7 1023.8 1023.8 0.0
29/03:00am 10.0 6.9 7.3 83 1.3 W 13 19 7 10 1023.7 1023.7 0.0
29/02:30am 9.6 6.9 7.5 87 1.0 W 11 19 6 10 1023.9 1023.9 0.0
29/02:00am 7.2 4.8 5.3 88 0.8 SW 7 9 4 5 1023.6 1023.6 0.0
29/01:30am 9.8 6.5 8.2 90 0.8 WNW 15 20 8 11 1023.7 1023.7 0.0
29/01:00am 6.8 5.1 6.1 95 0.3 WNW 4 9 2 5 1023.8 1023.8 0.0
29/12:30am 6.5 5.5 5.8 95 0.3 CALM 0 6 0 3 1023.8 1023.8 0.0
29/12:04am 6.1 5.0 5.2 94 0.4 CALM 0 0 0 0 1024.0 1024.0 0.0
29/12:00am 6.2 5.1 5.3 94 0.4 CALM 0 0 0 0 1024.0 1024.0 0.0
 
Date/Time
EST
Temp
°C
App
Temp
°C
Dew
Point
°C
Rel
Hum
%
Delta-T
°C
Wind Press
QNH
hPa
Press
MSL
hPa
Rain since
9am
mm
Dir  Spd
km/h
Gust
km/h
Spd
kts
Gust
kts
28/11:46pm 6.2 5.1 5.3 94 0.4 CALM 0 0 0 0 1024.0 1024.0 0.0
28/11:30pm 6.4 5.4 5.4 93 0.4 CALM 0 0 0 0 1023.8 1023.8 0.0
28/11:00pm 6.9 5.6 6.2 95 0.3 NW 2 7 1 4 1023.6 1023.6 0.0
28/10:30pm 7.1 6.2 6.2 94 0.4 CALM 0 0 0 0 1023.6 1023.6 0.0
28/10:00pm 7.3 6.4 6.1 92 0.5 CALM 0 4 0 2 1023.5 1023.5 0.0
28/09:30pm 8.1 6.7 7.2 94 0.4 W 4 7 2 4 1023.6 1023.6 0.0
28/09:00pm 8.5 7.9 7.4 93 0.5 CALM 0 0 0 0 1023.6 1023.6 0.0
28/08:30pm 8.7 6.8 7.5 92 0.6 SW 7 7 4 4 1023.4 1023.4 0.0
28/08:00pm 8.7 8.1 7.2 90 0.7 CALM 0 0 0 0 1023.0 1023.0 0.0
28/07:30pm 9.8 9.3 7.7 87 1.0 CALM 0 0 0 0 1022.7 1022.7 0.0
28/07:00pm 10.2 8.6 7.8 85 1.1 SSW 6 9 3 5 1022.6 1022.6 0.0
28/06:30pm 11.7 10.2 9.1 84 1.3 WNW 7 7 4 4 1022.1 1022.1 0.0
28/06:00pm 13.2 12.7 7.9 70 2.6 CALM 0 0 0 0 1021.4 1021.4 0.0
28/05:30pm 16.4 14.6 7.9 57 4.3 ENE 7 11 4 6 1021.3 1021.3 0.0
28/05:00pm 17.8 15.2 7.8 52 5.1 ENE 11 15 6 8 1020.9 1020.9 0.0
28/04:30pm 18.2 15.6 7.9 51 5.3 ENE 11 15 6 8 1020.8 1020.8 0.0

Other Formats:

Comma delimited format used in spreadsheet applications
http://www.bom.gov.au/fwo/IDN60801/IDN60801.94786.axf

JavaScript Object Notation format (JSON) in row-major order
http://www.bom.gov.au/fwo/IDN60801/IDN60801.94786.json